createdAt,value
2022-07-26T00:02:18.340Z,5.80
2022-07-26T00:07:23.107Z,6.47
2022-07-26T00:12:31.303Z,6.37
2022-07-26T00:17:38.357Z,6.37
2022-07-26T00:22:45.164Z,6.17
2022-07-26T00:27:52.334Z,6.07
2022-07-26T00:32:59.540Z,6.10
2022-07-26T00:38:07.039Z,6.10
2022-07-26T00:43:15.169Z,6.30
2022-07-26T00:48:22.078Z,6.80
2022-07-26T00:53:29.292Z,6.80
2022-07-26T00:58:36.275Z,6.50
2022-07-26T01:03:44.157Z,6.20
2022-07-26T01:08:51.637Z,6.70
2022-07-26T01:13:58.795Z,6.97
2022-07-26T01:19:05.843Z,6.40
2022-07-26T01:24:12.810Z,6.17
2022-07-26T01:29:19.711Z,6.47
2022-07-26T01:34:26.593Z,6.47
2022-07-26T01:39:33.443Z,6.90
2022-07-26T01:44:40.896Z,6.30
2022-07-26T01:49:47.767Z,6.47
2022-07-26T01:54:54.722Z,5.70
2022-07-26T02:00:01.651Z,5.90
2022-07-26T02:05:11.562Z,5.30
2022-07-26T02:10:18.858Z,6.20
2022-07-26T02:15:25.718Z,6.20
2022-07-26T02:20:33.721Z,6.23
2022-07-26T02:25:40.579Z,5.90
2022-07-26T02:30:48.368Z,6.30
2022-07-26T02:35:55.295Z,5.70
2022-07-26T02:41:02.089Z,5.53
2022-07-26T02:46:09.079Z,5.20
2022-07-26T02:51:16.057Z,5.30
2022-07-26T02:56:22.911Z,4.97
2022-07-26T03:01:29.912Z,4.60
2022-07-26T03:06:36.882Z,4.97
2022-07-26T03:11:43.863Z,4.90
2022-07-26T03:16:50.714Z,4.90
2022-07-26T03:21:57.636Z,4.37
2022-07-26T03:27:04.894Z,4.07
2022-07-26T03:32:11.857Z,4.17
2022-07-26T03:37:19.245Z,3.90
2022-07-26T03:42:26.144Z,4.40
2022-07-26T03:47:33.037Z,4.03
2022-07-26T03:52:40.286Z,3.90
2022-07-26T03:57:47.238Z,4.20
2022-07-26T04:02:54.589Z,3.93
2022-07-26T04:08:01.552Z,3.73
2022-07-26T04:13:09.115Z,3.83
2022-07-26T04:18:16.006Z,3.87
2022-07-26T04:23:22.976Z,4.10
2022-07-26T04:28:30.058Z,3.83
2022-07-26T04:33:37.088Z,3.70
2022-07-26T04:38:44.075Z,4.00
2022-07-26T04:43:51.186Z,3.40
2022-07-26T04:48:58.295Z,3.93
2022-07-26T04:54:05.580Z,3.77
2022-07-26T04:59:12.832Z,3.80
2022-07-26T05:04:19.702Z,3.83
2022-07-26T05:09:26.563Z,4.07
2022-07-26T05:14:33.422Z,3.77
2022-07-26T05:19:40.418Z,3.80
2022-07-26T05:24:47.308Z,3.77
2022-07-26T05:29:55.166Z,3.60
2022-07-26T05:35:02.104Z,3.07
2022-07-26T05:40:10.404Z,3.00
2022-07-26T05:45:17.369Z,3.10
2022-07-26T05:50:24.556Z,3.23
2022-07-26T05:55:31.529Z,2.93
2022-07-26T06:00:38.505Z,3.33
2022-07-26T06:05:45.341Z,3.17
2022-07-26T06:10:53.196Z,3.00
2022-07-26T06:16:00.311Z,3.57
2022-07-26T06:21:08.437Z,3.17
2022-07-26T06:26:15.410Z,3.47
2022-07-26T06:31:23.431Z,3.20
2022-07-26T06:36:31.311Z,3.63
2022-07-26T06:41:38.438Z,4.00
2022-07-26T06:46:45.466Z,3.43
2022-07-26T06:51:54.337Z,3.60
2022-07-26T06:57:01.604Z,3.50
2022-07-26T07:02:08.814Z,3.80
2022-07-26T07:07:15.937Z,4.10
2022-07-26T07:12:23.162Z,3.93
2022-07-26T07:17:30.255Z,3.87
2022-07-26T07:22:37.215Z,4.10
2022-07-26T07:27:44.171Z,4.13
2022-07-26T07:32:51.528Z,4.23
2022-07-26T07:37:58.600Z,4.07
2022-07-26T07:43:05.740Z,4.40
2022-07-26T07:48:12.804Z,4.60
2022-07-26T07:53:20.028Z,3.77
2022-07-26T07:58:28.022Z,4.13
2022-07-26T08:03:38.767Z,4.43
2022-07-26T08:08:43.724Z,4.70
2022-07-26T08:13:50.670Z,4.57
2022-07-26T08:18:58.498Z,5.07
2022-07-26T08:24:05.846Z,5.20
2022-07-26T08:29:13.147Z,4.90
2022-07-26T08:34:22.223Z,4.97
2022-07-26T08:39:29.087Z,5.30
2022-07-26T08:44:36.129Z,5.33
2022-07-26T08:49:45.142Z,5.07
2022-07-26T08:54:53.881Z,5.80
2022-07-26T09:00:03.743Z,5.30
2022-07-26T09:05:10.827Z,5.30
2022-07-26T09:10:17.729Z,4.90
2022-07-26T09:15:27.269Z,4.93
2022-07-26T09:20:34.743Z,4.73
2022-07-26T09:25:44.690Z,4.77
2022-07-26T09:30:54.759Z,4.90
2022-07-26T09:36:04.287Z,4.80
2022-07-26T09:41:14.215Z,5.00
2022-07-26T09:46:21.396Z,5.43
2022-07-26T09:51:31.295Z,5.37
2022-07-26T09:56:43.446Z,5.50
2022-07-26T10:01:53.168Z,5.33
2022-07-26T10:07:01.760Z,5.23
2022-07-26T10:12:11.749Z,5.50
2022-07-26T10:17:21.693Z,5.27
2022-07-26T10:22:31.687Z,5.23
2022-07-26T10:27:41.269Z,5.27
2022-07-26T10:32:49.426Z,5.10
2022-07-26T10:37:59.040Z,4.27
2022-07-26T10:43:37.697Z,4.97
2022-07-26T10:48:20.335Z,5.10
2022-07-26T10:53:28.511Z,5.10
2022-07-26T10:58:38.652Z,5.40
2022-07-26T11:03:46.218Z,5.30
2022-07-26T11:08:53.413Z,5.50
2022-07-26T11:14:03.317Z,5.17
2022-07-26T11:19:13.823Z,4.97
2022-07-26T11:24:22.579Z,4.80
2022-07-26T11:29:40.549Z,4.60
2022-07-26T11:34:41.280Z,4.90
2022-07-26T11:39:49.048Z,5.33
2022-07-26T11:44:56.195Z,5.17
2022-07-26T11:50:21.636Z,4.93
2022-07-26T11:55:14.762Z,4.50
2022-07-26T12:00:22.971Z,4.67
2022-07-26T12:05:30.726Z,4.90
2022-07-26T12:10:38.528Z,4.73
2022-07-26T12:15:48.553Z,4.40
2022-07-26T12:21:04.070Z,5.07
2022-07-26T12:26:10.160Z,5.10
2022-07-26T12:31:20.110Z,4.90
2022-07-26T12:36:30.081Z,4.40
2022-07-26T12:41:37.573Z,4.37
2022-07-26T12:46:45.308Z,4.70
2022-07-26T12:51:53.245Z,4.20
2022-07-26T12:57:00.302Z,4.40
2022-07-26T13:02:08.114Z,4.50
2022-07-26T13:07:16.505Z,4.60
2022-07-26T13:12:24.204Z,4.30
2022-07-26T13:17:31.690Z,3.90
2022-07-26T13:22:38.953Z,3.80
2022-07-26T13:27:46.478Z,4.60
2022-07-26T13:32:54.414Z,4.00
2022-07-26T13:38:01.777Z,3.92
2022-07-26T13:43:09.427Z,3.97
2022-07-26T13:48:16.550Z,3.63
2022-07-26T13:53:23.690Z,3.50
2022-07-26T13:58:31.546Z,3.70
2022-07-26T14:03:38.643Z,3.80
2022-07-26T14:08:45.996Z,3.70
2022-07-26T14:13:53.548Z,3.80
2022-07-26T14:19:01.618Z,3.83
2022-07-26T14:24:09.118Z,3.43
2022-07-26T14:29:16.785Z,3.50
2022-07-26T14:34:24.263Z,3.80
2022-07-26T14:39:31.448Z,3.37
2022-07-26T14:44:41.249Z,3.60
2022-07-26T14:49:47.156Z,3.00
2022-07-26T14:54:54.377Z,3.12
2022-07-26T15:00:01.368Z,3.42
2022-07-26T15:05:09.451Z,3.40
2022-07-26T15:10:16.845Z,2.90
2022-07-26T15:15:23.990Z,3.37
2022-07-26T15:20:31.011Z,3.10
2022-07-26T15:25:38.039Z,2.87
2022-07-26T15:30:45.103Z,3.12
2022-07-26T15:35:53.680Z,3.05
2022-07-26T15:41:00.719Z,2.92
2022-07-26T15:46:09.217Z,3.47
2022-07-26T15:51:17.877Z,3.15
2022-07-26T15:56:24.738Z,3.42
2022-07-26T16:01:33.548Z,3.00
2022-07-26T16:06:41.766Z,3.00
2022-07-26T16:11:49.571Z,2.80
2022-07-26T16:16:57.540Z,3.07
2022-07-26T16:22:05.388Z,3.10
2022-07-26T16:27:12.334Z,3.10
2022-07-26T16:32:21.478Z,2.87
2022-07-26T16:37:28.628Z,3.20
2022-07-26T16:42:35.733Z,3.17
2022-07-26T16:47:44.044Z,3.00
2022-07-26T16:52:53.108Z,2.77
2022-07-26T16:57:59.958Z,3.10
2022-07-26T17:03:07.065Z,2.80
2022-07-26T17:08:14.218Z,2.63
2022-07-26T17:13:21.269Z,3.03
2022-07-26T17:18:28.491Z,2.80
2022-07-26T17:23:36.786Z,2.80
2022-07-26T17:28:43.826Z,3.27
2022-07-26T17:33:50.948Z,2.73
2022-07-26T17:38:58.471Z,2.70
2022-07-26T17:44:07.597Z,2.77
2022-07-26T17:49:15.340Z,2.80
2022-07-26T17:54:24.357Z,2.60
2022-07-26T17:59:31.285Z,2.77
2022-07-26T18:04:38.485Z,2.80
2022-07-26T18:09:45.711Z,3.33
2022-07-26T18:14:52.940Z,2.70
2022-07-26T18:20:00.871Z,2.70
2022-07-26T18:25:08.863Z,2.60
2022-07-26T18:30:15.796Z,2.73
2022-07-26T18:35:25.121Z,2.80
2022-07-26T18:40:33.125Z,2.80
2022-07-26T18:45:40.779Z,2.80
2022-07-26T18:50:48.544Z,3.00
2022-07-26T18:55:57.759Z,2.57
2022-07-26T19:01:05.254Z,2.60
2022-07-26T19:06:13.392Z,2.77
2022-07-26T19:11:20.878Z,3.00
2022-07-26T19:16:28.937Z,2.60
2022-07-26T19:21:36.872Z,2.57
2022-07-26T19:26:44.663Z,2.50
2022-07-26T19:31:52.043Z,2.90
2022-07-26T19:36:59.762Z,2.50
2022-07-26T19:42:07.167Z,2.60
2022-07-26T19:47:16.153Z,2.30
2022-07-26T19:52:23.273Z,2.30
2022-07-26T19:57:30.417Z,2.70
2022-07-26T20:02:37.609Z,3.00
2022-07-26T20:07:52.384Z,3.13
2022-07-26T20:13:19.244Z,2.40
2022-07-26T20:18:46.521Z,2.17
2022-07-26T20:23:55.502Z,2.27
2022-07-26T20:29:07.849Z,2.23
2022-07-26T20:34:18.635Z,2.53
2022-07-26T20:39:30.673Z,2.37
2022-07-26T20:44:47.546Z,2.00
2022-07-26T20:49:53.527Z,2.30
2022-07-26T20:55:04.962Z,2.00
2022-07-26T21:00:23.855Z,2.00
2022-07-26T21:05:39.473Z,2.23
2022-07-26T21:10:50.611Z,2.07
2022-07-26T21:21:50.662Z,1.90
2022-07-26T21:27:07.094Z,2.17
2022-07-26T21:32:18.113Z,2.10
2022-07-26T21:37:56.053Z,2.30
2022-07-26T21:42:56.579Z,2.40
2022-07-26T21:48:19.558Z,1.97
2022-07-26T21:53:37.904Z,2.00
2022-07-26T21:58:56.310Z,2.30
2022-07-26T22:04:04.088Z,2.07
2022-07-26T22:09:11.698Z,2.00
2022-07-26T22:14:19.146Z,2.30
2022-07-26T22:19:26.700Z,1.93
2022-07-26T22:24:33.901Z,1.90
2022-07-26T22:29:40.769Z,2.00
2022-07-26T22:34:47.808Z,2.13
2022-07-26T22:39:54.729Z,2.10
2022-07-26T22:45:01.914Z,2.10
2022-07-26T22:50:12.004Z,2.17
2022-07-26T22:55:19.183Z,2.00
2022-07-26T23:00:26.249Z,2.00
2022-07-26T23:05:46.149Z,2.00
2022-07-26T23:10:41.799Z,1.67
2022-07-26T23:15:53.586Z,2.10
2022-07-26T23:20:57.235Z,1.80
2022-07-26T23:26:04.370Z,1.80
2022-07-26T23:31:12.632Z,2.00
2022-07-26T23:36:19.681Z,2.07
2022-07-26T23:41:27.123Z,1.90
2022-07-26T23:46:34.014Z,1.73
2022-07-26T23:51:41.318Z,1.90
2022-07-26T23:56:48.153Z,1.80
